DW9758 Weather Reports


time (UTC)temp
C
wind
direction
speed
KPH
gust
KPH
rain 1hr
cm
rain 24hr
cm
rain mn
cm
humidity
%
barometer
mb
20221203064535 -1 352 0.0 3.2 0.00 0.00 0.00 84 1016.3
20221203063037 -1 353 0.0 4.8 0.00 0.00 0.00 84 1016.2
20221203061533 -1 263 0.0 3.2 0.00 0.00 0.00 84 1016.3
20221203060033 -1 263 0.0 8.0 0.00 0.00 0.00 84 1016.3
20221203054534 -1 313 1.6 4.8 0.00 0.00 0.00 84 1016.3
20221203053026 0 193 0.0 11.3 0.00 0.00 0.00 84 1016.3
20221203051526 -1 199 0.0 6.4 0.00 0.00 0.00 84 1016.5
20221203050022 -2 32 1.6 6.4 0.00 0.00 0.00 83 1016.6
20221203044521 -2 303 0.0 6.4 0.00 0.00 0.00 84 1016.6
20221203043026 -2 4 1.6 6.4 0.00 0.00 0.00 84 1016.4
20221203041519 -2 55 4.8 8.0 0.00 0.00 0.00 83 1016.5
20221203040017 -2 346 0.0 3.2 0.00 0.00 0.00 84 1016.8
20221203034522 -2 348 1.6 6.4 0.00 0.00 0.00 83 1016.7
20221203033017 -2 342 0.0 4.8 0.00 0.00 0.00 83 1016.8
20221203031515 -2 30 0.0 4.8 0.00 0.00 0.00 83 1016.8
20221203030020 -2 300 1.6 4.8 0.00 0.00 0.00 83 1016.7
20221203024515 -2 3 0.0 3.2 0.00 0.00 0.00 83 1016.7
20221203023017 -2 357 0.0 3.2 0.00 0.00 0.00 83 1016.9
20221203021510 -2 352 0.0 3.2 0.00 0.00 0.00 83 1016.9
20221203020010 -2 221 0.0 1.6 0.00 0.00 0.00 83 1016.9
20221203014513 -2 280 3.2 6.4 0.00 0.00 0.00 83 1016.7
20221203013008 -2 26 0.0 4.8 0.00 0.00 0.00 83 1016.8
20221203011508 -2 41 0.0 4.8 0.00 0.00 0.00 83 1016.8
20221203010006 -2 351 3.2 6.4 0.00 0.00 0.00 83 1016.9
20221203004506 -2 50 0.0 4.8 0.00 0.00 0.00 83 1016.8
20221203003005 -2 7 3.2 6.4 0.00 0.00 0.00 83 1016.9
20221203001607 -2 27 0.0 4.8 0.00 0.00 0.00 83 1017.0
20221203000002 -2 16 0.0 4.8 0.00 0.00 0.00 83 1017.0
20221202234502 -2 7 1.6 4.8 0.00 0.00 0.00 82 1016.8
20221202233201 -2 344 0.0 4.8 0.00 0.00 0.00 82 1017.0
20221202231558 -2 337 3.2 6.4 0.00 0.00 0.00 82 1016.9
20221202230112 -2 346 0.0 1.6 0.00 0.00 0.00 83 1016.9
20221202224554 -2 346 0.0 0.0 0.00 0.00 0.00 83 1017.0
20221202223052 -2 346 0.0 3.2 0.00 0.00 0.00 83 1017.1
20221202221551 -2 339 1.6 6.4 0.00 0.00 0.00 83 1017.0
20221202220051 -2 26 0.0 0.0 0.00 0.00 0.00 83 1016.9
20221202214550 -1 26 0.0 3.2 0.00 0.00 0.00 83 1016.8
20221202213048 -1 33 0.0 1.6 0.00 0.00 0.00 83 1016.9
20221202211551 -1 32 1.6 4.8 0.00 0.00 0.00 83 1017.1
20221202210047 -1 31 0.0 1.6 0.00 0.00 0.00 83 1017.1
20221202204545 -1 31 0.0 1.6 0.00 0.00 0.00 83 1017.2
20221202203044 -1 30 0.0 0.0 0.00 0.00 0.00 83 1017.2
20221202201548 -1 32 0.0 4.8 0.00 0.00 0.00 83 1017.2
20221202200045 -1 34 0.0 3.2 0.00 0.00 0.00 83 1017.3
20221202194543 -1 28 0.0 3.2 0.00 0.00 0.00 83 1017.2
20221202193041 -1 24 0.0 3.2 0.00 0.00 0.00 83 1017.2
20221202191559 -1 30 0.0 4.8 0.00 0.00 0.00 82 1017.2
20221202190041 -1 28 0.0 3.2 0.00 0.00 0.00 82 1017.4
20221202184552 -1 53 0.0 3.2 0.00 0.00 0.00 82 1017.5
20221202183040 -1 53 0.0 0.0 0.00 0.00 0.00 82 1017.5
20221202181540 -1 53 0.0 0.0 0.00 0.00 0.00 82 1017.5
20221202180038 -1 53 0.0 0.0 0.00 0.00 0.00 82 1017.5
20221202174538 -1 53 0.0 1.6 0.00 0.00 0.00 83 1017.5
20221202173035 -1 53 0.0 1.6 0.00 0.00 0.00 83 1017.3
20221202171532 -1 53 0.0 0.0 0.00 0.00 0.00 83 1017.4
20221202170033 0 53 0.0 1.6 0.00 0.00 0.00 83 1017.4
20221202164531 0 53 0.0 1.6 0.00 0.00 0.00 83 1017.4
20221202163031 0 52 0.0 4.8 0.00 0.00 0.00 83 1017.3
20221202161534 0 48 3.2 11.3 0.00 0.00 0.00 83 1017.4
20221202160034 0 61 4.8 11.3 0.00 0.00 0.00 82 1017.1
20221202154532 0 69 6.4 12.9 0.00 0.00 0.00 83 1017.1
20221202153042 0 51 6.4 14.5 0.00 0.00 0.00 83 1017.2
20221202151526 0 55 6.4 14.5 0.00 0.00 0.00 83 1017.1
20221202150027 1 154 0.0 0.0 0.00 0.00 0.00 83 1016.9
20221202144528 1 157 0.0 0.0 0.00 0.03 0.00 83 1017.1
20221202143025 1 180 0.0 1.6 0.00 0.03 0.00 83 1017.2
20221202141537 1 230 0.0 3.2 0.00 0.03 0.00 83 1017.2
20221202140029 1 266 1.6 8.0 0.00 0.03 0.00 84 1017.3
20221202134522 0 238 3.2 9.7 0.00 0.03 0.00 84 1017.2
20221202133022 0 254 1.6 8.0 0.00 0.03 0.00 84 1017.1
20221202131521 1 257 3.2 8.0 0.00 0.03 0.00 83 1017.1
20221202130036 1 242 1.6 6.4 0.00 0.03 0.00 83 1017.2
20221202124522 1 249 1.6 6.4 0.00 0.03 0.00 83 1017.2
20221202123017 1 196 0.0 4.8 0.00 0.03 0.00 83 1017.4
20221202121516 1 290 0.0 4.8 0.00 0.03 0.00 83 1017.6
20221202120024 0 244 0.0 4.8 0.00 0.03 0.00 83 1017.7
20221202114501 0 242 1.6 6.4 0.00 0.03 0.00 83 1017.9
20221202113108 0 236 3.2 8.0 0.00 0.03 0.00 83 1018.0
20221202111605 0 242 3.2 6.4 0.00 0.03 0.00 83 1018.2
20221202110059 0 59 1.6 3.2 0.00 0.03 0.00 83 1018.3
20221202104556 0 53 0.0 0.0 0.00 0.05 0.00 83 1018.3
20221202103054 0 53 0.0 0.0 0.00 0.05 0.00 83 1018.5
20221202101555 0 53 0.0 0.0 0.00 0.05 0.00 83 1018.7
20221202100055 0 52 0.0 0.0 0.00 0.05 0.00 82 1018.7
20221202094549 0 52 0.0 0.0 0.00 0.05 0.00 81 1018.9
20221202093106 0 47 0.0 0.0 0.00 0.05 0.00 76 1019.0
20221202091545 0 43 0.0 0.0 0.00 0.05 0.00 73 1019.0
20221202090044 0 209 0.0 0.0 0.00 0.05 0.00 72 1018.9
20221202084544 0 238 0.0 0.0 0.00 0.05 0.00 72 1019.1
20221202083049 0 238 0.0 0.0 0.00 0.05 0.00 72 1019.1
20221202081542 -1 238 0.0 0.0 0.00 0.05 0.00 72 1019.0
20221202080042 -1 238 0.0 0.0 0.00 0.05 0.00 72 1019.0
20221202074543 -1 238 0.0 0.0 0.00 0.05 0.00 72 1019.1
20221202073044 -1 238 0.0 0.0 0.00 0.05 0.00 72 1019.1
20221202071539 -1 237 0.0 0.0 0.00 0.05 0.00 72 1019.0
20221202070038 -1 255 0.0 0.0 0.00 0.05 0.00 72 1019.0